Latest Weather Observations for Parkes Airport

IDN60801

Issued at 1:33 pm EST Monday 2 May 2016 (issued every 30 minutes, with the page automatically refreshed every 10 minutes)

About weather observations | Map of weather stations | Latest weather observations for NSW | Other Formats
Station Details ID: 065068 Name: PARKES AIRPORT AWS Lat: -33.13 Lon: 148.24 Height: 323.3 m
Data from the previous 72 hours. | See also: Recent months at Parkes Airport
Date/Time
EST
Temp
°C
App
Temp
°C
Dew
Point
Rel
Hum
%
Delta-T
°C
Wind Press
QNH
hPa
Press
MSL
hPa
Rain
since 9 am
mm
Dir
 
Spd
km/h
Gust
km/h
Spd
kts
Gust
kts
02/01:30pm 17.2 14.2 5.8 47 5.6 W 11 19 6 10 1015.9 1015.9 0.0
02/01:00pm 17.5 14.6 6.7 49 5.4 W 11 13 6 7 1016.2 1016.2 0.0
02/12:30pm 17.1 14.5 4.4 43 6.1 NW 7 15 4 8 1016.5 1016.5 0.0
02/12:00pm 17.1 14.3 5.1 45 5.8 W 9 13 5 7 1016.8 1016.8 0.0
02/11:30am 16.6 14.3 5.9 49 5.3 WNW 7 11 4 6 1017.1 1017.1 0.0
02/11:00am 16.1 13.6 4.5 46 5.5 SW 7 13 4 7 1018.1 1018.0 0.0
02/10:30am 16.5 14.4 5.8 49 5.3 NW 6 11 3 6 1018.2 1018.1 0.0
02/10:00am 16.6 15.0 6.4 51 5.1 NNE 4 7 2 4 1018.3 1018.2 0.0
02/09:30am 15.4 13.7 7.4 59 4.0 ENE 6 9 3 5 1018.3 1018.2 0.0
02/09:00am 13.6 11.9 7.6 67 3.0 NE 6 9 3 5 1018.4 1018.3 0.0
02/08:30am 12.4 10.3 8.3 76 2.1 ENE 9 11 5 6 1018.4 1018.3 0.0
02/08:00am 10.5 8.9 8.6 88 0.9 NE 7 9 4 5 1018.5 1018.5 0.0
02/07:30am 8.6 7.0 7.8 95 0.4 ENE 6 7 3 4 1018.5 1018.5 0.0
02/07:00am 7.1 4.9 6.4 95 0.3 ENE 7 9 4 5 1018.2 1018.1 0.0
02/06:30am 6.7 4.5 6.0 95 0.3 ENE 7 9 4 5 1018.1 1018.0 0.0
02/06:00am 6.9 4.3 6.2 95 0.3 ENE 9 11 5 6 1018.0 1017.9 0.0
02/05:30am 7.3 5.2 6.6 95 0.3 ENE 7 7 4 4 1018.0 1017.9 0.0
02/05:00am 7.5 5.1 6.8 95 0.3 ENE 9 11 5 6 1017.8 1017.7 0.0
02/04:30am 7.7 5.9 7.0 95 0.3 NE 6 7 3 4 1017.6 1017.5 0.0
02/04:00am 7.4 6.2 6.5 94 0.4 NE 2 9 1 5 1017.3 1017.2 0.0
02/03:30am 7.6 5.5 6.7 94 0.4 NE 7 9 4 5 1017.0 1017.0 0.0
02/03:00am 7.8 5.8 6.9 94 0.4 NE 7 9 4 5 1017.0 1017.0 0.0
02/02:30am 8.1 7.0 6.9 92 0.6 NNE 2 7 1 4 1017.5 1017.4 0.0
02/02:00am 8.7 6.4 7.5 92 0.6 N 9 11 5 6 1017.6 1017.5 0.0
02/01:30am 9.9 9.5 8.3 90 0.8 CALM 0 2 0 1 1017.5 1017.4 0.0
02/01:00am 9.2 8.6 7.5 89 0.8 CALM 0 0 0 0 1017.8 1017.7 0.0
02/12:30am 9.9 9.5 8.2 89 0.8 CALM 0 4 0 2 1018.0 1017.9 0.0
02/12:00am 10.0 8.8 7.9 87 1.0 SE 4 9 2 5 1018.2 1018.1 0.0
 
Date/Time
EST
Temp
°C
App
Temp
°C
Dew
Point
Rel
Hum
%
Delta-T
°C
Wind Press
QNH
hPa
Press
MSL
hPa
Rain
since 9 am
mm
Dir
 
Spd
km/h
Gust
km/h
Spd
kts
Gust
kts
01/11:30pm 10.0 7.9 8.1 88 0.9 SE 9 11 5 6 1018.7 1018.7 0.0
01/11:00pm 10.6 10.1 8.0 84 1.3 CALM 0 0 0 0 1018.7 1018.7 0.0
01/10:30pm 11.2 10.7 7.9 80 1.6 CALM 0 0 0 0 1018.8 1018.8 0.0
01/10:00pm 11.1 9.5 7.8 80 1.6 SSW 6 11 3 6 1018.9 1018.9 0.0
01/09:30pm 11.8 11.3 7.9 77 1.9 CALM 0 0 0 0 1018.7 1018.7 0.0
01/09:00pm 12.0 11.6 8.1 77 1.9 CALM 0 2 0 1 1018.6 1018.6 0.0
01/08:30pm 12.9 12.5 8.4 74 2.3 CALM 0 4 0 2 1018.4 1018.3 0.0
01/08:00pm 12.7 12.1 8.8 77 2.0 SW 2 6 1 3 1018.1 1018.0 0.0
01/07:30pm 13.0 10.5 8.3 73 2.4 SSW 11 13 6 7 1017.7 1017.6 0.0
01/07:00pm 13.9 11.2 8.9 72 2.6 SSW 13 17 7 9 1017.3 1017.2 0.0
01/06:30pm 14.7 11.7 9.3 70 2.8 SW 15 17 8 9 1017.0 1017.0 0.0
01/06:00pm 15.3 12.7 7.8 61 3.8 SW 11 13 6 7 1016.9 1016.9 0.0
01/05:30pm 17.2 13.3 7.0 51 5.2 WSW 17 20 9 11 1016.5 1016.5 0.0
01/05:00pm 18.5 14.5 9.0 54 5.0 WSW 20 28 11 15 1016.3 1016.3 0.0
01/04:30pm 19.6 15.7 8.6 49 5.8 W 19 30 10 16 1016.1 1016.1 0.0
01/04:00pm 20.3 15.0 8.3 46 6.3 WSW 26 35 14 19 1015.9 1015.9 0.0
01/03:30pm 20.8 16.4 10.3 51 5.8 W 24 35 13 19 1015.8 1015.8 0.0
01/03:00pm 21.1 17.1 11.7 55 5.3 W 24 33 13 18 1015.5 1015.4 0.0
01/02:30pm 22.0 18.1 12.0 53 5.7 WSW 24 32 13 17 1015.3 1015.2 0.0
01/02:00pm 21.3 17.7 13.0 59 4.8 W 24 33 13 18 1015.2 1015.1 0.0
01/01:30pm 22.0 18.4 14.1 61 4.7 WSW 26 37 14 20 1015.2 1015.1 0.0
01/01:00pm 22.1 17.7 14.2 61 4.7 WSW 30 41 16 22 1015.3 1015.2 0.0
01/12:30pm 22.4 19.2 16.4 69 3.7 WSW 28 43 15 23 1015.4 1015.3 0.0
01/12:00pm 22.8 21.7 17.7 73 3.2 NW 20 28 11 15 1015.4 1015.3 0.0
01/11:30am 21.9 20.0 18.5 81 2.2 NW 26 41 14 22 1015.9 1015.9 0.0
01/11:00am 21.2 18.9 17.6 80 2.2 NW 26 33 14 18 1016.2 1016.2 0.0
01/10:30am 19.9 17.2 17.5 86 1.5 NNW 28 41 15 22 1016.4 1016.4 0.0
01/10:00am 19.3 16.4 17.1 87 1.4 NNW 28 37 15 20 1016.7 1016.7 0.0
01/09:30am 19.6 17.0 17.9 90 1.1 NNW 28 37 15 20 1016.5 1015.8 0.0
01/09:00am 18.7 15.4 17.0 90 1.0 N 30 39 16 21 1016.2 1015.5 7.4
01/08:30am 18.2 16.8 16.9 92 0.8 N 20 28 11 15 1015.9 1015.2 7.4
01/08:00am 17.4 16.7 16.3 93 0.7 N 15 20 8 11 1015.7 1015.0 7.4
01/07:30am 17.5 16.5 16.5 94 0.6 N 17 22 9 12 1015.5 1014.8 7.4
01/07:00am 17.6 15.7 16.6 94 0.6 N 22 28 12 15 1015.1 1014.4 7.4
01/06:30am 17.7 16.4 16.9 95 0.5 N 19 24 10 13 1015.1 1014.4 7.4
01/06:00am 17.7 16.4 16.9 95 0.5 N 19 26 10 14 1015.4 1014.7 7.4
01/05:30am 17.8 16.3 16.8 94 0.6 N 20 24 11 13 1015.4 1014.7 7.2
01/05:00am 18.1 15.9 16.8 92 0.8 NNW 24 30 13 16 1016.0 1015.3 6.8
01/04:30am 18.0 15.4 16.9 93 0.7 NNW 26 35 14 19 1016.2 1015.5 6.0
01/04:00am 17.7 15.4 16.7 94 0.6 N 24 32 13 17 1015.8 1015.1 5.2
01/03:30am 17.6 14.5 16.6 94 0.6 N 28 37 15 20 1015.5 1014.8 4.8
01/03:00am 17.6 14.4 16.3 92 0.8 N 28 35 15 19 1015.6 1014.9 3.0
01/02:30am 18.0 15.6 16.5 91 0.9 NW 24 30 13 16 1015.7 1015.0 2.2
01/02:12am 18.4 16.7 16.2 87 1.3 NNW 20 28 11 15 1015.9 1015.2 0.2
01/02:00am 18.8 15.2 16.2 85 1.6 NNE 30 35 16 19 1013.7 1013.0 0.0
01/01:30am 18.6 15.7 16.0 85 1.6 NNE 26 33 14 18 1013.7 1013.0 0.0
01/01:00am 18.4 16.0 16.4 88 1.2 NE 24 33 13 18 1014.1 1013.4 0.0
01/12:30am 18.4 17.4 16.6 89 1.1 NNE 17 22 9 12 1014.7 1014.0 0.0
01/12:00am 16.9 16.8 15.9 94 0.6 NE 11 15 6 8 1015.2 1014.5 0.0
 
Date/Time
EST
Temp
°C
App
Temp
°C
Dew
Point
Rel
Hum
%
Delta-T
°C
Wind Press
QNH
hPa
Press
MSL
hPa
Rain
since 9 am
mm
Dir
 
Spd
km/h
Gust
km/h
Spd
kts
Gust
kts
30/11:30pm 16.9 16.8 16.1 95 0.5 NE 11 11 6 6 1015.3 1014.6 0.0
30/11:00pm 16.5 16.2 15.5 94 0.6 ENE 11 13 6 7 1016.0 1015.3 0.0
30/10:30pm 17.1 17.1 16.3 95 0.5 ENE 11 13 6 7 1016.6 1016.0 0.0
30/10:00pm 16.8 16.6 15.8 94 0.6 ENE 11 13 6 7 1016.9 1016.3 0.0
30/09:30pm 17.1 16.6 16.0 93 0.7 ENE 13 13 7 7 1016.9 1016.3 0.0
30/09:00pm 17.0 17.2 15.7 92 0.8 E 9 13 5 7 1017.4 1016.7 0.0
30/08:30pm 17.9 17.8 16.1 89 1.1 NNE 11 13 6 7 1017.4 1016.7 0.0
30/08:00pm 18.6 18.5 16.9 90 1.0 NE 13 17 7 9 1017.1 1016.5 0.0
30/07:30pm 18.2 18.0 16.7 91 0.9 NNE 13 15 7 8 1017.1 1016.5 0.0
30/07:00pm 18.7 18.9 16.7 88 1.2 NNE 11 13 6 7 1017.3 1016.6 0.0
30/06:30pm 19.4 19.6 16.8 85 1.6 N 11 13 6 7 1017.1 1016.5 0.0
30/06:00pm 19.6 20.4 16.4 82 1.9 NNE 7 9 4 5 1017.0 1016.4 0.0
30/05:30pm 20.4 20.6 16.8 80 2.2 N 11 13 6 7 1017.0 1016.4 0.0
30/05:00pm 21.9 21.9 17.1 74 3.0 N 13 15 7 8 1017.1 1016.5 0.0
30/04:30pm 22.4 21.7 17.3 73 3.2 N 17 24 9 13 1016.9 1016.3 0.0
30/04:00pm 22.7 21.8 16.9 70 3.6 N 17 24 9 13 1017.0 1016.4 0.0
30/03:30pm 23.0 22.2 17.2 70 3.6 N 17 20 9 11 1017.0 1016.4 0.0
30/03:00pm 22.9 23.2 17.8 73 3.2 N 13 20 7 11 1017.1 1016.5 0.0
30/02:30pm 22.3 22.3 17.2 73 3.2 NNW 13 17 7 9 1017.4 1016.7 0.0
30/02:00pm 21.8 22.7 17.6 77 2.6 N 9 15 5 8 1017.5 1016.8 0.0
30/01:30pm 21.2 21.0 17.6 80 2.2 N 15 20 8 11 1017.7 1017.0 0.0
30/01:00pm 21.2 20.4 17.0 77 2.6 N 17 24 9 13 1017.9 1017.2 0.0
30/12:30pm 21.3 20.5 17.9 81 2.1 N 19 24 10 13 1018.4 1017.7 0.0
30/12:00pm 20.6 19.8 17.2 81 2.1 NNW 17 24 9 13 1018.7 1018.0 0.0
30/11:30am 21.3 20.4 18.3 83 1.9 NNW 20 26 11 14 1019.1 1018.4 0.0
30/11:00am 19.8 18.2 16.6 82 2.0 NNW 20 28 11 15 1019.3 1018.7 0.0
30/10:30am 19.4 19.1 17.4 88 1.2 NNW 15 20 8 11 1019.7 1019.1 0.0
30/10:00am 19.2 19.0 16.8 86 1.5 NNW 13 15 7 8 1019.7 1019.1 0.0
30/09:30am 18.8 18.6 16.6 87 1.3 N 13 19 7 10 1019.6 1019.0 0.0
30/09:00am 18.3 16.8 16.3 88 1.2 NNE 19 24 10 13 1019.0 1018.3 36.4
30/08:30am 18.2 15.9 16.7 91 0.9 N 24 32 13 17 1018.7 1018.0 36.4
30/08:00am 17.8 13.9 16.5 92 0.8 NNE 32 41 17 22 1018.5 1017.8 36.4
30/07:30am 17.4 14.6 16.4 94 0.6 NNE 26 33 14 18 1018.8 1018.1 36.2
30/07:00am 16.9 16.0 15.9 94 0.6 NNE 15 20 8 11 1019.1 1018.4 36.0
30/06:30am 16.8 17.6 15.8 94 0.6 N 6 11 3 6 1019.4 1018.8 35.6
30/06:00am 16.9 16.7 15.8 93 0.7 N 11 13 6 7 1019.2 1018.5 35.4
30/05:30am 17.2 15.9 15.7 91 0.9 NNE 17 20 9 11 1018.7 1018.0 35.0
30/05:00am 17.2 16.6 15.7 91 0.9 NNE 13 19 7 10 1018.4 1017.7 34.8
30/04:30am 16.8 15.5 15.8 94 0.6 NE 17 20 9 11 1018.1 1017.4 34.6
30/04:00am 16.6 15.6 15.6 94 0.6 ENE 15 20 8 11 1018.2 1017.5 33.6
30/03:30am 16.6 14.6 15.5 93 0.7 NE 20 24 11 13 1018.4 1017.7 33.4
30/03:00am 16.8 14.9 15.8 94 0.6 NE 20 26 11 14 1018.7 1018.0 33.0
30/02:30am 17.1 16.1 16.5 96 0.4 NNE 17 20 9 11 1019.4 1018.8 32.6
30/02:00am 17.5 17.4 17.0 97 0.3 N 13 19 7 10 1019.9 1019.3 29.8
30/01:30am 17.4 17.7 16.9 97 0.3 NE 11 13 6 7 1019.4 1018.8 29.4
30/01:00am 17.4 17.7 16.9 97 0.3 NE 11 13 6 7 1019.5 1018.9 28.2
30/12:30am 17.4 17.4 17.1 98 0.2 NE 13 19 7 10 1019.7 1019.1 27.6
30/12:00am 17.4 19.4 16.9 97 0.3 N 2 7 1 4 1019.9 1019.3 26.4
 
Date/Time
EST
Temp
°C
App
Temp
°C
Dew
Point
Rel
Hum
%
Delta-T
°C
Wind Press
QNH
hPa
Press
MSL
hPa
Rain
since 9 am
mm
Dir
 
Spd
km/h
Gust
km/h
Spd
kts
Gust
kts
29/11:30pm 17.6 18.3 17.1 97 0.3 W 9 9 5 5 1020.4 1019.8 22.8
29/11:00pm 17.6 19.6 17.0 96 0.4 E 2 6 1 3 1020.3 1019.7 18.6
29/10:30pm 17.8 18.6 17.2 96 0.4 E 9 11 5 6 1020.3 1019.7 17.2
29/10:00pm 17.8 17.8 17.3 97 0.3 ESE 13 17 7 9 1020.2 1019.6 17.0
29/09:30pm 17.6 19.2 17.0 96 0.4 SE 4 9 2 5 1020.7 1020.0 15.2
29/09:00pm 17.6 19.2 17.0 96 0.4 SE 4 9 2 5 1021.0 1020.3 13.6
29/08:30pm 17.6 17.5 17.0 96 0.4 SSW 13 17 7 9 1020.9 1020.2 10.6
29/08:00pm 18.0 19.2 17.4 96 0.4 SSW 7 9 4 5 1020.6 1019.9 10.2
29/07:30pm 18.1 19.6 17.5 96 0.4 WSW 6 11 3 6 1020.0 1019.4 9.6
29/07:00pm 18.3 19.6 17.5 95 0.5 SSW 7 11 4 6 1019.8 1019.2 7.4
29/06:30pm 18.4 19.7 17.6 95 0.5 S 7 11 4 6 1019.6 1019.0 7.4
29/06:00pm 18.2 18.4 17.6 96 0.4 SW 13 19 7 10 1019.6 1019.0 7.4
29/05:30pm 18.3 17.2 17.7 96 0.4 SW 20 26 11 14 1019.3 1018.7 7.4
29/05:00pm 18.7 15.0 16.1 85 1.6 W 30 44 16 24 1019.0 1018.3 0.6
29/04:56pm 19.5 16.7 15.4 77 2.5 WNW 24 41 13 22 1019.1 1018.4 0.0
29/04:30pm 24.7 21.0 13.9 51 6.4 N 26 35 14 19 1017.9 1017.2 0.0
29/04:00pm 25.2 21.0 13.4 48 7.0 N 28 37 15 20 1017.9 1017.2 0.0
29/03:30pm 25.4 21.1 13.3 47 7.2 N 28 39 15 21 1017.8 1017.1 0.0
29/03:00pm 26.0 21.5 13.8 47 7.3 N 30 37 16 20 1017.8 1017.1 0.0
29/02:30pm 25.5 20.9 13.4 47 7.2 N 30 39 16 21 1017.6 1016.9 0.0
29/02:00pm 25.6 19.9 13.1 46 7.4 N 35 48 19 26 1017.9 1017.2 0.0

Other Formats:

Comma delimited format used in spreadsheet applications
http://www.bom.gov.au/fwo/IDN60801/IDN60801.95717.axf

JavaScript Object Notation format (JSON) in row-major order
http://www.bom.gov.au/fwo/IDN60801/IDN60801.95717.json